Aérodrome :
LOGIN :

S'inscrire | Disclaimer

   EN    FR    IT 

 










Légende :    VFR   VFR Marginal   IFR   IFR Intensif   IFR Très Intensif
Visi : 
Plafond : 
>= 8 km
>= 3000ft
5 à 8 km
1000 à 3000 ft
1500m à 5 km
500 à 1000 ft
800 à 1500m
200 à 500 ft
< 800m
< 200 ft
Symboles :   Orages  Brouillard  Fortes neiges  Fortes précipitations  Vent > 20 kt
SIGMETs :   Divers  Orages  Givrage  Turbulence  Onde Orograph.  Cendres Volcan.







- Altitude de l'aérodrome : 160 ft
- Code IATA : LRT
- Voir les cartes d'approche


LFRH - Lorient Lann Bihoue

DERNIER METAR :
  • 250430Z AUTO 31006KT 9999 BKN008 BKN013 BKN026 12/12 Q1016 BECMG SCT020

METARs EXPIRÉS :
  • 250400Z AUTO 27006KT 9999 BKN003 BKN008 OVC026 12/12 Q1016 BECMG SCT020
  • 250330Z AUTO 27010KT 6000 OVC003 12/12 Q1016 BECMG SCT020
  • 250300Z AUTO 26010KT 7000 -RADZ OVC003 13/13 Q1016 TEMPO 4000 DZ BECMG SCT020
  • 250230Z AUTO 26012KT 5000 -DZ BR OVC003 13/13 Q1016 BECMG SCT020
  • 250200Z AUTO 26012KT 5000 -DZ BR OVC003 12/12 Q1016 TEMPO DZ

TAF TAF LFRH
Valide du 25 à 00h jusqu'au 26 à 00h UTC


242300Z 2500/2524 25010KT 9999 BKN004 OVC008
TEMPO 2500/2504 4000 DZ OVC004
BECMG 2504/2506 31010KT SCT020
TEMPO 2511/2520 26015G25KT CAVOK
Pas de NOTAMs connus pour ce terrain.



MET'MAP, la Météo Aéronautique d'un coup d'oeil ! - Copyright ORBIFLY Décembre 2007 - Disclaimer

ORBIFLY MET'MAP TEAM :

Programmation & Développement : Alexandra Zaïnal
Conception & Développement : Baudouin d'Aumeries
Co-Programmation & Développement : Marc-Olivier Méhu
Soutien technique & logistique : Manuel Goepfert

Contact : metmap@orbifly.com




SOURCES & CREDITS :

   NOAA